Altus, OK

20:10 CDT le 04 septembre 2015 (GMT -0500)
Altus Municipal | | Change Station
CLOSE
Current Station
Aéroport
Location: Altus,
Altitude: 1434 ft
Stations météo à proximité

Alt. 1434 ft 34.70 °N, 99.34 °W | Updated 15 minutes ago

Partiellement nuageux
Partiellement nuageux
90 ° F
Paraît 90 ° F
N
10
Vent Variable Vent de SE

Aujourd'hui
Haut(e) -- | Bas -- ° F
--% Risque de précip.
Hier
Haut(e) -- | Bas -- ° F
Precip. -- pouce
7:12 AM 7:59 PM
Lune gibbeuse décroissante, 54% visible
Pression 29.91 pouce
Visibilité 10.0 Miles terrestres
Nuages Ciel dégagé
indice de chaleur 90 ° F
Point de rosée 60 ° F
Humidité 37%
Précipitations 0.00 pouce
Profondeur de la couche neigeuse Non disponible.
UV 0 sur 12
Pollen 10.20 sur 12
Qualité de l'air Non disponible.
Flu Activity Non disponible.
METAR KAXS 050055Z AUTO 13009KT 10SM CLR 32/16 A2991 RMK AO2 T03220157
Pression 29.91 pouce
Visibilité 10.0 Miles terrestres
Nuages Ciel dégagé
indice de chaleur 90 ° F
Point de rosée 60 ° F
Humidité 37%
Précipitations 0.00 pouce
Profondeur de la couche neigeuse Non disponible.
UV 0 sur 12
Pollen 10.20 sur 12
Qualité de l'air Non disponible.
Flu Activity Non disponible.
METAR KAXS 050055Z AUTO 13009KT 10SM CLR 32/16 A2991 RMK AO2 T03220157

10-Day Weather Forecast

×

Almanac

Astronomie

Sep. 04, 2015 Lever Coucher
Temps réel
Crépuscule civil
Crépuscule nautique
Crépuscule astronomique
Lune
Durée de lumière visible
Longueur du jour
Tomorrow will be .
, % of the Moon is Illuminated

Extrêmes aujourd'hui

State Highs State Lows

Community

WunderPhotos

Upload Photos

1,852,372 Photos téléchargées !

WunderBlogs® & News

Nearby

Qualité de l'air

  Qualité de l'air Indice de la qualité de l'air Polluant
Not available.

Épaisseur de neige

Station Depth Altitude

Activité sismique

Ville Distance Mag. Time & Date
Minimum magnitude displayed is 2.5.

Températures des eaux côtières

Lieu Température

Stations

Stations météo à proximité

Emplacement de la station Température Refroidissement éolien Point de rosée Humidité Vent Precip. Alt. Mise à jour Type